createdAt,value
2023-02-19T00:01:54.984Z,6.83
2023-02-19T00:04:24.711Z,6.79
2023-02-19T00:06:52.942Z,6.79
2023-02-19T00:09:21.673Z,6.76
2023-02-19T00:11:50.124Z,6.76
2023-02-19T00:14:20.405Z,6.76
2023-02-19T00:16:49.037Z,6.73
2023-02-19T00:19:19.135Z,6.72
2023-02-19T00:21:49.276Z,6.69
2023-02-19T00:24:17.462Z,6.66
2023-02-19T00:26:46.758Z,6.69
2023-02-19T00:29:17.268Z,6.69
2023-02-19T00:31:46.288Z,6.67
2023-02-19T00:34:15.335Z,6.64
2023-02-19T00:36:44.353Z,6.65
2023-02-19T00:39:16.505Z,6.63
2023-02-19T00:41:45.665Z,6.64
2023-02-19T00:44:14.900Z,6.61
2023-02-19T00:46:46.032Z,6.64
2023-02-19T00:49:18.356Z,6.58
2023-02-19T00:51:47.017Z,6.50
2023-02-19T00:54:17.288Z,6.45
2023-02-19T00:56:45.887Z,6.42
2023-02-19T00:59:14.022Z,6.37
2023-02-19T01:01:42.630Z,6.35
2023-02-19T01:04:12.619Z,6.37
2023-02-19T01:06:41.313Z,6.32
2023-02-19T01:09:09.435Z,6.28
2023-02-19T01:11:38.866Z,6.26
2023-02-19T01:14:07.092Z,6.25
2023-02-19T01:16:35.777Z,6.25
2023-02-19T01:19:04.223Z,6.22
2023-02-19T01:21:32.651Z,6.20
2023-02-19T01:24:00.832Z,6.14
2023-02-19T01:26:32.094Z,6.06
2023-02-19T01:29:02.520Z,5.99
2023-02-19T01:31:31.969Z,5.97
2023-02-19T01:34:03.835Z,5.95
2023-02-19T01:36:34.867Z,5.98
2023-02-19T01:39:05.202Z,6.04
2023-02-19T01:41:35.764Z,6.04
2023-02-19T01:44:08.200Z,5.95
2023-02-19T01:46:38.810Z,5.91
2023-02-19T01:49:10.386Z,5.88
2023-02-19T01:51:42.497Z,5.83
2023-02-19T01:54:14.343Z,5.83
2023-02-19T01:56:44.763Z,5.78
2023-02-19T01:59:15.298Z,5.76
2023-02-19T02:01:43.553Z,5.76
2023-02-19T02:04:14.541Z,5.75
2023-02-19T02:06:49.057Z,5.76
2023-02-19T02:09:36.695Z,5.70
2023-02-19T02:12:05.159Z,5.71
2023-02-19T02:14:37.509Z,5.70
2023-02-19T02:17:15.297Z,5.69
2023-02-19T02:20:03.801Z,5.72
2023-02-19T02:22:38.524Z,5.70
2023-02-19T02:25:23.643Z,5.70
2023-02-19T02:27:59.638Z,5.67
2023-02-19T02:30:40.779Z,5.72
2023-02-19T02:33:21.761Z,5.68
2023-02-19T02:35:55.102Z,5.67
2023-02-19T02:38:26.989Z,5.64
2023-02-19T02:40:56.884Z,5.61
2023-02-19T02:43:25.846Z,5.58
2023-02-19T02:45:56.511Z,5.51
2023-02-19T02:48:38.488Z,5.50
2023-02-19T02:51:15.401Z,5.53
2023-02-19T02:54:11.562Z,5.60
2023-02-19T02:56:42.798Z,5.59
2023-02-19T02:59:14.577Z,5.55
2023-02-19T03:02:01.913Z,5.55
2023-02-19T03:04:35.102Z,5.51
2023-02-19T03:07:07.661Z,5.45
2023-02-19T03:09:43.230Z,5.45
2023-02-19T03:12:33.282Z,5.44
2023-02-19T03:15:26.412Z,5.44
2023-02-19T03:18:20.022Z,5.47
2023-02-19T03:20:52.783Z,5.54
2023-02-19T03:23:43.028Z,5.64
2023-02-19T03:26:12.501Z,5.71
2023-02-19T03:29:09.248Z,5.75
2023-02-19T03:31:42.312Z,5.77
2023-02-19T03:34:16.962Z,5.85
2023-02-19T03:36:49.750Z,5.96
2023-02-19T03:39:23.107Z,6.00
2023-02-19T03:41:59.484Z,6.00
2023-02-19T03:44:39.515Z,6.01
2023-02-19T03:47:16.683Z,6.03
2023-02-19T03:49:51.278Z,6.07
2023-02-19T03:52:28.342Z,6.10
2023-02-19T03:55:05.133Z,6.09
2023-02-19T03:57:46.749Z,6.03
2023-02-19T04:00:19.234Z,6.03
2023-02-19T04:02:55.356Z,6.00
2023-02-19T04:05:29.025Z,5.92
2023-02-19T04:08:04.765Z,5.85
2023-02-19T04:10:40.855Z,5.80
2023-02-19T04:13:17.290Z,5.78
2023-02-19T04:15:47.948Z,5.79
2023-02-19T04:18:18.880Z,5.82
2023-02-19T04:20:49.459Z,5.86
2023-02-19T04:23:21.941Z,5.87
2023-02-19T04:25:56.104Z,5.85
2023-02-19T04:28:24.257Z,5.83
2023-02-19T04:30:52.513Z,5.88
2023-02-19T04:33:20.710Z,5.92
2023-02-19T04:35:50.102Z,5.90
2023-02-19T04:38:18.324Z,5.89
2023-02-19T04:40:46.872Z,5.92
2023-02-19T04:43:15.051Z,5.86
2023-02-19T04:45:43.101Z,5.80
2023-02-19T04:48:11.670Z,5.71
2023-02-19T04:50:40.751Z,5.65
2023-02-19T04:53:10.227Z,5.56
2023-02-19T04:55:39.224Z,5.53
2023-02-19T04:58:07.587Z,5.54
2023-02-19T05:00:35.743Z,5.46
2023-02-19T05:03:03.865Z,5.43
2023-02-19T05:05:32.541Z,5.49
2023-02-19T05:08:00.785Z,5.52
2023-02-19T05:10:30.181Z,5.59
2023-02-19T05:12:58.367Z,5.60
2023-02-19T05:15:26.433Z,5.56
2023-02-19T05:17:54.675Z,5.53
2023-02-19T05:20:23.474Z,5.50
2023-02-19T05:22:51.796Z,5.50
2023-02-19T05:25:19.968Z,5.49
2023-02-19T05:27:49.444Z,5.42
2023-02-19T05:30:17.593Z,5.38
2023-02-19T05:32:45.820Z,5.39
2023-02-19T05:35:13.876Z,5.33
2023-02-19T05:37:42.116Z,5.25
2023-02-19T05:40:10.627Z,5.18
2023-02-19T05:42:39.165Z,5.15
2023-02-19T05:45:09.447Z,5.18
2023-02-19T05:47:37.604Z,5.25
2023-02-19T05:50:06.104Z,5.26
2023-02-19T05:52:34.533Z,5.24
2023-02-19T05:55:02.680Z,5.23
2023-02-19T05:57:30.849Z,5.20
2023-02-19T05:59:59.253Z,5.24
2023-02-19T06:02:28.707Z,5.22
2023-02-19T06:04:56.912Z,5.21
2023-02-19T06:07:25.042Z,5.22
2023-02-19T06:09:53.181Z,5.25
2023-02-19T06:12:21.290Z,5.20
2023-02-19T06:14:49.491Z,5.15
2023-02-19T06:17:18.379Z,5.08
2023-02-19T06:19:47.761Z,5.03
2023-02-19T06:22:16.729Z,5.01
2023-02-19T06:24:44.779Z,4.96
2023-02-19T06:27:12.982Z,4.89
2023-02-19T06:29:41.074Z,4.84
2023-02-19T06:32:09.387Z,4.83
2023-02-19T06:34:37.803Z,4.82
2023-02-19T06:37:07.243Z,4.79
2023-02-19T06:39:35.338Z,4.80
2023-02-19T06:42:03.484Z,4.77
2023-02-19T06:44:31.929Z,4.69
2023-02-19T06:47:00.125Z,4.68
2023-02-19T06:49:28.348Z,4.67
2023-02-19T06:51:56.453Z,4.70
2023-02-19T06:54:26.493Z,4.73
2023-02-19T06:56:54.713Z,4.71
2023-02-19T06:59:22.836Z,4.72
2023-02-19T07:01:50.979Z,4.69
2023-02-19T07:04:19.249Z,4.63
2023-02-19T07:06:47.420Z,4.60
2023-02-19T07:09:15.519Z,4.56
2023-02-19T07:11:44.973Z,4.48
2023-02-19T07:14:17.002Z,4.45
2023-02-19T07:16:47.429Z,4.47
2023-02-19T07:19:16.687Z,4.49
2023-02-19T07:21:44.865Z,4.53
2023-02-19T07:24:12.971Z,4.51
2023-02-19T07:26:41.182Z,4.49
2023-02-19T07:29:11.806Z,4.49
2023-02-19T07:31:40.061Z,4.48
2023-02-19T07:34:08.590Z,4.46
2023-02-19T07:36:36.733Z,4.44
2023-02-19T07:39:04.957Z,4.42
2023-02-19T07:41:33.223Z,4.41
2023-02-19T07:44:01.317Z,4.43
2023-02-19T07:46:31.182Z,4.46
2023-02-19T07:49:01.112Z,4.49
2023-02-19T07:51:29.271Z,4.50
2023-02-19T07:53:57.371Z,4.52
2023-02-19T07:56:25.500Z,4.57
2023-02-19T07:58:53.716Z,4.62
2023-02-19T08:01:45.180Z,4.64
2023-02-19T08:04:15.337Z,4.68
2023-02-19T08:06:43.916Z,4.67
2023-02-19T08:09:12.649Z,4.66
2023-02-19T08:11:58.131Z,4.64
2023-02-19T08:14:26.995Z,4.64
2023-02-19T08:16:55.680Z,4.65
2023-02-19T08:19:25.220Z,4.68
2023-02-19T08:21:53.561Z,4.72
2023-02-19T08:24:21.885Z,4.75
2023-02-19T08:26:49.999Z,4.76
2023-02-19T08:29:18.186Z,4.79
2023-02-19T08:31:46.584Z,4.81
2023-02-19T08:34:14.877Z,4.80
2023-02-19T08:36:44.256Z,4.83
2023-02-19T08:39:12.369Z,4.86
2023-02-19T08:41:40.488Z,4.89
2023-02-19T08:44:08.699Z,4.97
2023-02-19T08:46:36.780Z,5.08
2023-02-19T08:49:04.951Z,5.23
2023-02-19T08:51:33.296Z,5.43
2023-02-19T08:54:05.095Z,5.60
2023-02-19T08:56:33.494Z,5.74
2023-02-19T08:59:01.564Z,5.81
2023-02-19T09:01:29.852Z,5.88
2023-02-19T09:03:58.043Z,5.97
2023-02-19T09:06:26.302Z,6.07
2023-02-19T09:08:54.482Z,6.11
2023-02-19T09:11:23.952Z,6.15
2023-02-19T09:13:52.042Z,6.20
2023-02-19T09:16:20.210Z,6.23
2023-02-19T09:18:48.377Z,6.24
2023-02-19T09:21:16.507Z,6.28
2023-02-19T09:23:44.640Z,6.40
2023-02-19T09:26:14.067Z,6.47
2023-02-19T09:28:43.679Z,6.46
2023-02-19T09:31:14.621Z,6.51
2023-02-19T09:33:44.534Z,6.57
2023-02-19T09:36:13.294Z,6.65
2023-02-19T09:38:41.740Z,6.69
2023-02-19T09:41:16.409Z,6.62
2023-02-19T09:43:46.327Z,6.55
2023-02-19T09:46:29.136Z,6.52
2023-02-19T09:49:03.342Z,6.50
2023-02-19T09:51:33.829Z,6.50
2023-02-19T09:54:03.016Z,6.68
2023-02-19T09:56:31.561Z,6.89
2023-02-19T09:59:02.044Z,7.17
2023-02-19T10:01:34.573Z,7.34
2023-02-19T10:04:02.732Z,7.40
2023-02-19T10:06:30.935Z,7.42
2023-02-19T10:09:12.799Z,7.35
2023-02-19T10:11:41.445Z,7.25
2023-02-19T10:14:18.554Z,7.12
2023-02-19T10:16:50.283Z,7.08
2023-02-19T10:19:18.896Z,7.15
2023-02-19T10:21:47.454Z,7.35
2023-02-19T10:24:21.672Z,7.59
2023-02-19T10:26:51.790Z,7.65
2023-02-19T10:29:22.040Z,7.61
2023-02-19T10:31:52.249Z,7.52
2023-02-19T10:34:22.624Z,7.53
2023-02-19T10:36:52.252Z,7.54
2023-02-19T10:39:42.306Z,7.56
2023-02-19T10:42:29.351Z,7.63
2023-02-19T10:45:02.918Z,7.83
2023-02-19T10:47:33.532Z,7.90
2023-02-19T10:50:04.477Z,7.90
2023-02-19T10:52:36.752Z,7.97
2023-02-19T10:55:28.471Z,7.96
2023-02-19T10:57:56.747Z,7.93
2023-02-19T11:00:30.617Z,7.89
2023-02-19T11:03:21.390Z,7.94
2023-02-19T11:05:59.450Z,7.97
2023-02-19T11:08:27.675Z,8.07
2023-02-19T11:10:55.979Z,8.30
2023-02-19T11:13:32.370Z,8.50
2023-02-19T11:16:02.307Z,8.53
2023-02-19T11:18:32.932Z,8.53
2023-02-19T11:21:03.557Z,8.47
2023-02-19T11:23:33.360Z,8.43
2023-02-19T11:26:04.722Z,8.39
2023-02-19T11:28:34.918Z,8.40
2023-02-19T11:31:23.498Z,8.41
2023-02-19T11:33:57.933Z,8.39
2023-02-19T11:36:30.691Z,8.36
2023-02-19T11:39:00.764Z,8.37
2023-02-19T11:41:48.759Z,8.29
2023-02-19T11:44:31.317Z,8.25
2023-02-19T11:47:18.447Z,8.34
2023-02-19T11:49:55.713Z,8.43
2023-02-19T11:52:36.723Z,8.53
2023-02-19T11:55:15.065Z,8.63
2023-02-19T11:57:47.776Z,8.66
2023-02-19T12:00:24.874Z,8.67
2023-02-19T12:03:06.824Z,8.69
2023-02-19T12:05:48.505Z,8.70
2023-02-19T12:08:46.626Z,8.67
2023-02-19T12:11:34.432Z,8.70
2023-02-19T12:14:25.007Z,8.98
2023-02-19T12:17:01.980Z,9.18
2023-02-19T12:19:45.536Z,9.13
2023-02-19T12:22:27.741Z,9.14
2023-02-19T12:25:19.893Z,9.18
2023-02-19T12:27:59.343Z,9.18
2023-02-19T12:30:46.019Z,9.30
2023-02-19T12:33:34.915Z,9.32
2023-02-19T12:36:16.680Z,9.27
2023-02-19T12:38:47.802Z,9.25
2023-02-19T12:41:28.610Z,9.31
2023-02-19T12:44:02.622Z,9.30
2023-02-19T12:46:34.533Z,9.33
2023-02-19T12:49:10.860Z,9.38
2023-02-19T12:51:46.392Z,9.37
2023-02-19T12:54:21.764Z,9.47
2023-02-19T12:56:54.805Z,9.60
2023-02-19T12:59:27.606Z,9.76
2023-02-19T13:02:02.016Z,9.84
2023-02-19T13:04:41.128Z,9.79
2023-02-19T13:07:15.657Z,9.74
2023-02-19T13:09:49.479Z,9.63
2023-02-19T13:12:23.052Z,9.52
2023-02-19T13:14:58.041Z,9.51
2023-02-19T13:17:29.919Z,9.99
2023-02-19T13:20:02.871Z,10.46
2023-02-19T13:22:58.030Z,10.69
2023-02-19T13:25:39.372Z,10.69
2023-02-19T13:28:21.479Z,10.68
2023-02-19T13:31:14.638Z,10.79
2023-02-19T13:33:57.598Z,10.95
2023-02-19T13:36:28.248Z,11.00
2023-02-19T13:39:00.581Z,10.94
2023-02-19T13:41:32.386Z,10.83
2023-02-19T13:44:04.583Z,10.78
2023-02-19T13:46:42.980Z,10.66
2023-02-19T13:49:43.517Z,10.50
2023-02-19T13:52:38.386Z,10.39
2023-02-19T13:55:44.179Z,10.42
2023-02-19T13:58:40.248Z,10.39
2023-02-19T14:01:09.660Z,10.42
2023-02-19T14:04:08.031Z,10.42
2023-02-19T14:07:18.018Z,10.42
2023-02-19T14:09:47.521Z,10.40
2023-02-19T14:12:25.017Z,10.34
2023-02-19T14:14:55.334Z,10.35
2023-02-19T14:17:28.366Z,10.36
2023-02-19T14:19:59.451Z,10.39
2023-02-19T14:23:04.796Z,10.43
2023-02-19T14:25:39.629Z,10.44
2023-02-19T14:28:18.182Z,10.47
2023-02-19T14:30:51.721Z,10.45
2023-02-19T14:33:22.936Z,10.45
2023-02-19T14:35:55.931Z,10.34
2023-02-19T14:38:28.823Z,10.25
2023-02-19T14:41:00.358Z,10.18
2023-02-19T14:43:30.758Z,10.18
2023-02-19T14:46:05.523Z,10.19
2023-02-19T14:48:39.001Z,10.21
2023-02-19T14:51:12.817Z,10.18
2023-02-19T14:53:45.314Z,10.14
2023-02-19T14:56:21.578Z,10.05
2023-02-19T14:59:07.945Z,10.05
2023-02-19T15:01:37.443Z,10.07
2023-02-19T15:04:05.903Z,10.08
2023-02-19T15:06:36.432Z,10.06
2023-02-19T15:09:07.458Z,10.04
2023-02-19T15:11:36.783Z,10.01
2023-02-19T15:14:08.383Z,9.94
2023-02-19T15:16:38.133Z,9.88
2023-02-19T15:19:09.150Z,9.85
2023-02-19T15:21:45.098Z,9.83
2023-02-19T15:24:16.423Z,9.81
2023-02-19T15:26:50.453Z,9.74
2023-02-19T15:29:21.078Z,9.69
2023-02-19T15:31:52.711Z,9.68
2023-02-19T15:34:23.204Z,9.69
2023-02-19T15:36:53.364Z,9.68
2023-02-19T15:39:24.188Z,9.63
2023-02-19T15:41:58.470Z,9.61
2023-02-19T15:44:38.127Z,9.59
2023-02-19T15:47:15.149Z,9.52
2023-02-19T15:49:51.286Z,9.49
2023-02-19T15:52:28.792Z,9.44
2023-02-19T15:55:02.363Z,9.43
2023-02-19T15:57:36.868Z,9.38
2023-02-19T16:00:14.521Z,9.31
2023-02-19T16:02:44.306Z,9.22
2023-02-19T16:05:16.201Z,9.16
2023-02-19T16:07:46.209Z,9.10
2023-02-19T16:10:24.234Z,9.04
2023-02-19T16:13:03.017Z,8.99
2023-02-19T16:15:35.319Z,8.98
2023-02-19T16:18:05.873Z,8.97
2023-02-19T16:20:36.445Z,8.95
2023-02-19T16:23:13.618Z,8.90
2023-02-19T16:25:46.129Z,8.92
2023-02-19T16:28:21.631Z,8.91
2023-02-19T16:30:57.318Z,8.88
2023-02-19T16:33:48.448Z,8.79
2023-02-19T16:36:21.936Z,8.69
2023-02-19T16:39:22.196Z,8.65
2023-02-19T16:42:15.964Z,8.59
2023-02-19T16:44:45.317Z,8.55
2023-02-19T16:47:31.625Z,8.51
2023-02-19T16:50:04.087Z,8.43
2023-02-19T16:52:32.386Z,8.32
2023-02-19T16:55:00.594Z,8.18
2023-02-19T16:57:29.526Z,8.12
2023-02-19T16:59:57.576Z,8.05
2023-02-19T17:02:26.588Z,8.00
2023-02-19T17:04:55.916Z,7.97
2023-02-19T17:07:27.499Z,7.84
2023-02-19T17:09:55.691Z,7.79
2023-02-19T17:12:24.298Z,7.73
2023-02-19T17:14:53.904Z,7.61
2023-02-19T17:17:22.088Z,7.51
2023-02-19T17:19:50.297Z,7.42
2023-02-19T17:22:18.443Z,7.30
2023-02-19T17:24:50.617Z,7.20
2023-02-19T17:27:19.226Z,7.06
2023-02-19T17:29:47.297Z,6.95
2023-02-19T17:32:15.702Z,6.83
2023-02-19T17:34:43.915Z,6.72
2023-02-19T17:37:12.047Z,6.63
2023-02-19T17:39:40.128Z,6.54
2023-02-19T17:42:09.775Z,6.49
2023-02-19T17:44:37.853Z,6.46
2023-02-19T17:47:06.633Z,6.37
2023-02-19T17:49:35.248Z,6.28
2023-02-19T17:52:04.620Z,6.21
2023-02-19T17:54:32.745Z,6.11
2023-02-19T17:57:01.048Z,6.00
2023-02-19T17:59:30.464Z,5.93
2023-02-19T18:01:58.626Z,5.85
2023-02-19T18:04:26.718Z,5.78
2023-02-19T18:06:55.894Z,5.71
2023-02-19T18:09:24.155Z,5.63
2023-02-19T18:11:52.350Z,5.54
2023-02-19T18:14:20.515Z,5.48
2023-02-19T18:16:51.033Z,5.39
2023-02-19T18:19:19.546Z,5.26
2023-02-19T18:21:47.707Z,5.14
2023-02-19T18:24:16.334Z,5.10
2023-02-19T18:26:44.788Z,5.02
2023-02-19T18:29:13.239Z,4.88
2023-02-19T18:31:41.425Z,4.80
2023-02-19T18:34:17.574Z,4.68
2023-02-19T18:36:46.585Z,4.60
2023-02-19T18:39:14.854Z,4.49
2023-02-19T18:41:47.252Z,4.35
2023-02-19T18:44:18.630Z,4.26
2023-02-19T18:46:46.938Z,4.23
2023-02-19T18:49:16.527Z,4.22
2023-02-19T18:51:44.777Z,4.25
2023-02-19T18:54:12.958Z,4.29
2023-02-19T18:56:43.411Z,4.35
2023-02-19T18:59:11.894Z,4.33
2023-02-19T19:01:40.141Z,4.38
2023-02-19T19:04:08.478Z,4.42
2023-02-19T19:06:37.975Z,4.44
2023-02-19T19:09:07.099Z,4.43
2023-02-19T19:11:35.440Z,4.31
2023-02-19T19:14:03.777Z,4.25
2023-02-19T19:16:31.930Z,4.22
2023-02-19T19:19:00.030Z,4.20
2023-02-19T19:21:28.199Z,4.15
2023-02-19T19:23:57.670Z,4.14
2023-02-19T19:26:26.181Z,4.09
2023-02-19T19:28:54.442Z,4.05
2023-02-19T19:31:24.842Z,3.95
2023-02-19T19:33:53.696Z,3.94
2023-02-19T19:36:23.703Z,3.95
2023-02-19T19:38:51.883Z,3.96
2023-02-19T19:41:22.752Z,3.98
2023-02-19T19:43:50.941Z,3.96
2023-02-19T19:46:20.665Z,3.88
2023-02-19T19:48:50.031Z,3.80
2023-02-19T19:51:18.849Z,3.72
2023-02-19T19:53:48.525Z,3.61
2023-02-19T19:56:17.058Z,3.50
2023-02-19T19:58:50.526Z,3.40
2023-02-19T20:01:22.031Z,3.27
2023-02-19T20:03:53.689Z,3.18
2023-02-19T20:06:32.207Z,3.10
2023-02-19T20:09:02.434Z,3.06
2023-02-19T20:11:34.639Z,3.03
2023-02-19T20:14:07.083Z,2.99
2023-02-19T20:16:36.040Z,2.97
2023-02-19T20:19:04.831Z,2.93
2023-02-19T20:21:33.105Z,2.93
2023-02-19T20:24:01.600Z,3.02
2023-02-19T20:26:31.882Z,3.06
2023-02-19T20:29:00.045Z,3.10
2023-02-19T20:31:29.965Z,3.10
2023-02-19T20:33:58.110Z,3.06
2023-02-19T20:36:28.504Z,3.05
2023-02-19T20:38:57.174Z,3.03
2023-02-19T20:41:25.721Z,3.06
2023-02-19T20:43:53.915Z,3.14
2023-02-19T20:46:22.055Z,3.16
2023-02-19T20:48:52.080Z,3.14
2023-02-19T20:51:20.250Z,3.16
2023-02-19T20:53:48.663Z,3.14
2023-02-19T20:56:16.996Z,3.07
2023-02-19T20:58:45.094Z,3.12
2023-02-19T21:01:13.344Z,3.19
2023-02-19T21:03:41.455Z,3.18
2023-02-19T21:06:11.391Z,3.14
2023-02-19T21:08:39.716Z,3.17
2023-02-19T21:11:07.965Z,3.26
2023-02-19T21:13:36.418Z,3.39
2023-02-19T21:16:04.767Z,3.42
2023-02-19T21:18:32.932Z,3.48
2023-02-19T21:21:01.245Z,3.56
2023-02-19T21:23:30.731Z,3.65
2023-02-19T21:25:58.902Z,3.69
2023-02-19T21:28:26.971Z,3.66
2023-02-19T21:30:55.407Z,3.61
2023-02-19T21:33:23.530Z,3.62
2023-02-19T21:35:51.586Z,3.57
2023-02-19T21:38:19.637Z,3.50
2023-02-19T21:40:49.236Z,3.47
2023-02-19T21:43:17.387Z,3.44
2023-02-19T21:45:45.561Z,3.39
2023-02-19T21:48:13.713Z,3.32
2023-02-19T21:50:45.453Z,3.27
2023-02-19T21:53:13.678Z,3.28
2023-02-19T21:55:56.616Z,3.29
2023-02-19T21:58:28.105Z,3.29
2023-02-19T22:00:58.134Z,3.28
2023-02-19T22:03:27.059Z,3.29
2023-02-19T22:05:55.725Z,3.23
2023-02-19T22:08:23.949Z,3.16
2023-02-19T22:10:52.054Z,3.08
2023-02-19T22:13:20.281Z,3.04
2023-02-19T22:15:49.825Z,3.06
2023-02-19T22:18:17.921Z,3.15
2023-02-19T22:20:46.208Z,3.18
2023-02-19T22:23:14.328Z,3.18
2023-02-19T22:25:42.604Z,3.21
2023-02-19T22:28:10.751Z,3.22
2023-02-19T22:30:38.894Z,3.31
2023-02-19T22:33:08.361Z,3.33
2023-02-19T22:35:36.457Z,3.42
2023-02-19T22:38:04.600Z,3.50
2023-02-19T22:40:32.660Z,3.47
2023-02-19T22:43:01.621Z,3.52
2023-02-19T22:45:29.789Z,3.46
2023-02-19T22:47:58.110Z,3.39
2023-02-19T22:50:27.559Z,3.30
2023-02-19T22:52:55.784Z,3.22
2023-02-19T22:55:23.880Z,3.30
2023-02-19T22:57:52.051Z,3.34
2023-02-19T23:00:22.124Z,3.31
2023-02-19T23:02:50.804Z,3.23
2023-02-19T23:05:19.034Z,3.14
2023-02-19T23:07:48.556Z,3.04
2023-02-19T23:10:16.901Z,2.93
2023-02-19T23:12:45.033Z,2.82
2023-02-19T23:15:13.226Z,2.93
2023-02-19T23:17:41.358Z,3.12
2023-02-19T23:20:10.170Z,3.22
2023-02-19T23:22:38.466Z,3.30
2023-02-19T23:25:08.248Z,3.28
2023-02-19T23:27:36.394Z,3.25
2023-02-19T23:30:04.840Z,3.16
2023-02-19T23:32:33.078Z,3.07
2023-02-19T23:35:01.208Z,2.99
2023-02-19T23:37:29.421Z,2.92
2023-02-19T23:39:57.494Z,2.85
2023-02-19T23:42:26.956Z,2.79
2023-02-19T23:44:55.012Z,2.85
2023-02-19T23:47:23.201Z,3.00
2023-02-19T23:49:51.310Z,3.05
2023-02-19T23:52:19.511Z,3.00
2023-02-19T23:54:47.601Z,2.97
2023-02-19T23:57:15.880Z,3.15
2023-02-19T23:59:47.289Z,3.22
